Time;durP1;ratioP1;P1;durP2;ratioP2;P2;SDS_P1;SDS_P2;PMS_P1;PMS_P2;Temp;Humidity;BMP_temperature;BMP_pressure;BME280_temperature;BME280_humidity;BME280_pressure;Samples;Min_cycle;Max_cycle;Signal;HPM_P1;HPM_P2
2021/06/13 00:00:08;;;;;;;1.98;1.20;;;28.30;47.40;;;;;;5059274;28;20128;-60
2021/06/13 00:02:33;;;;;;;1.60;1.23;;;28.30;47.30;;;;;;5083373;28;20111;-60
2021/06/13 00:04:59;;;;;;;2.03;1.25;;;28.30;47.30;;;;;;5080936;28;20092;-60
2021/06/13 00:07:24;;;;;;;2.45;1.33;;;28.30;47.30;;;;;;5067654;28;20459;-59
2021/06/13 00:09:50;;;;;;;1.88;1.30;;;28.30;47.30;;;;;;5054965;28;20032;-59
2021/06/13 00:12:16;;;;;;;2.67;1.38;;;28.30;47.30;;;;;;5062584;28;20059;-59
2021/06/13 00:14:41;;;;;;;2.58;1.50;;;28.30;47.80;;;;;;5044086;28;20484;-60
2021/06/13 00:17:07;;;;;;;1.90;1.40;;;28.30;47.20;;;;;;5049558;28;20043;-59
2021/06/13 00:19:33;;;;;;;1.88;1.10;;;28.30;47.20;;;;;;5046299;28;20040;-58
2021/06/13 00:21:58;;;;;;;1.70;1.25;;;28.30;47.20;;;;;;5063096;28;20088;-59
2021/06/13 00:24:24;;;;;;;2.67;1.33;;;28.30;47.10;;;;;;5062645;28;20032;-60
2021/06/13 00:26:50;;;;;;;1.75;1.20;;;28.30;47.10;;;;;;5047357;28;20043;-60
2021/06/13 00:29:15;;;;;;;2.10;1.42;;;28.40;47.20;;;;;;5058142;28;20055;-59
2021/06/13 00:31:41;;;;;;;1.60;1.10;;;28.30;47.10;;;;;;5043775;28;20065;-60
2021/06/13 00:34:06;;;;;;;1.58;1.23;;;28.30;47.10;;;;;;5050421;28;20033;-59
2021/06/13 00:36:32;;;;;;;2.10;1.42;;;28.40;47.10;;;;;;5051810;28;20115;-60
2021/06/13 00:38:58;;;;;;;1.60;1.20;;;28.40;47.10;;;;;;5062653;28;20036;-60
2021/06/13 00:41:24;;;;;;;1.90;1.38;;;28.40;47.10;;;;;;5052869;28;20096;-59
2021/06/13 00:43:50;;;;;;;2.00;1.30;;;28.40;47.10;;;;;;5055622;28;20041;-60
2021/06/13 00:46:16;;;;;;;1.55;1.27;;;28.40;47.00;;;;;;5050721;28;20032;-60
2021/06/13 00:48:42;;;;;;;1.98;1.33;;;28.40;47.00;;;;;;5063722;28;20135;-58
2021/06/13 00:51:08;;;;;;;2.90;1.30;;;28.40;47.10;;;;;;5059764;28;20543;-59
2021/06/13 00:53:34;;;;;;;3.33;1.60;;;28.40;47.00;;;;;;5045405;28;20031;-61
2021/06/13 00:56:00;;;;;;;1.90;1.50;;;28.40;47.00;;;;;;5063620;28;20032;-58
2021/06/13 00:58:26;;;;;;;2.20;1.40;;;28.40;46.90;;;;;;5061455;28;20082;-60
2021/06/13 01:00:52;;;;;;;1.70;1.35;;;28.50;47.00;;;;;;5062383;28;20399;-59
2021/06/13 01:03:19;;;;;;;2.00;1.40;;;28.40;47.00;;;;;;5058527;28;20166;-59
2021/06/13 01:05:45;;;;;;;2.00;1.30;;;28.50;47.20;;;;;;5062579;28;20095;-59
2021/06/13 01:08:26;;;;;;;1.95;1.40;;;28.40;47.10;;;;;;5051388;28;20482;-59
2021/06/13 01:11:00;;;;;;;1.83;1.40;;;28.50;47.10;;;;;;5052586;28;20032;-59
2021/06/13 01:13:57;;;;;;;1.90;1.30;;;28.50;47.10;;;;;;5046438;28;20103;-61
2021/06/13 01:16:47;;;;;;;1.60;1.30;;;28.50;47.00;;;;;;5058532;28;20422;-60
2021/06/13 01:19:28;;;;;;;1.92;1.40;;;28.50;47.00;;;;;;5059335;28;20110;-60
2021/06/13 01:21:59;;;;;;;2.30;1.50;;;28.50;47.00;;;;;;5046458;28;20060;-60
2021/06/13 01:25:05;;;;;;;1.98;1.42;;;28.50;47.00;;;;;;5060408;28;20083;-59
2021/06/13 01:27:55;;;;;;;2.00;1.33;;;28.50;47.00;;;;;;5028205;28;20025;-59
2021/06/13 01:30:25;;;;;;;1.42;1.23;;;28.50;47.00;;;;;;5069136;28;20032;-61
2021/06/13 01:32:50;;;;;;;1.83;1.40;;;28.50;47.00;;;;;;5071004;28;20056;-60
2021/06/13 01:35:21;;;;;;;1.60;1.30;;;28.50;47.00;;;;;;5066799;28;20059;-61
2021/06/13 01:37:51;;;;;;;2.22;1.50;;;28.50;47.50;;;;;;5071699;28;20115;-59
2021/06/13 01:40:19;;;;;;;2.10;1.50;;;28.50;46.90;;;;;;5068787;28;20060;-61
2021/06/13 01:42:52;;;;;;;2.40;1.60;;;28.50;46.90;;;;;;5054364;28;20668;-61
2021/06/13 01:45:21;;;;;;;2.60;1.67;;;28.50;46.90;;;;;;5065208;28;20103;-60
2021/06/13 01:47:48;;;;;;;1.70;1.30;;;28.50;47.00;;;;;;5059061;28;20461;-59
2021/06/13 01:50:15;;;;;;;1.90;1.50;;;28.50;46.90;;;;;;5058781;28;20044;-59
2021/06/13 01:52:43;;;;;;;1.98;1.55;;;28.60;47.00;;;;;;5055171;28;20036;-60
2021/06/13 01:55:10;;;;;;;1.80;1.40;;;28.60;46.90;;;;;;5065362;28;20032;-60
2021/06/13 01:57:39;;;;;;;1.90;1.35;;;28.60;47.00;;;;;;5063053;28;20046;-60
2021/06/13 02:00:09;;;;;;;2.38;1.30;;;28.60;47.00;;;;;;5069189;28;20060;-57
2021/06/13 02:02:36;;;;;;;1.42;1.23;;;28.60;47.10;;;;;;5056721;28;20494;-61
2021/06/13 02:05:04;;;;;;;1.30;1.10;;;28.60;47.00;;;;;;5062717;28;20021;-59
2021/06/13 02:07:36;;;;;;;1.92;1.30;;;28.50;46.70;;;;;;5055919;28;20111;-59
2021/06/13 02:10:08;;;;;;;1.83;1.25;;;28.50;46.90;;;;;;5052252;28;20028;-59
2021/06/13 02:12:42;;;;;;;1.83;1.30;;;28.50;46.80;;;;;;5051914;28;20123;-58
2021/06/13 02:15:09;;;;;;;1.45;1.17;;;28.50;46.90;;;;;;5060494;28;20020;-59
2021/06/13 02:17:40;;;;;;;1.23;1.13;;;28.40;46.90;;;;;;5059707;28;20029;-59
2021/06/13 02:20:08;;;;;;;1.85;1.20;;;28.50;47.00;;;;;;5049190;28;20037;-59
2021/06/13 02:22:34;;;;;;;1.52;1.20;;;28.40;46.90;;;;;;5054381;28;20472;-60
2021/06/13 02:25:00;;;;;;;1.73;1.20;;;28.40;46.90;;;;;;5050014;28;20040;-59
2021/06/13 02:27:29;;;;;;;2.38;1.33;;;28.40;46.90;;;;;;5052271;28;20553;-60
2021/06/13 02:29:56;;;;;;;1.55;1.30;;;28.40;46.90;;;;;;5067949;28;20112;-60
2021/06/13 02:32:24;;;;;;;1.90;1.20;;;28.40;47.00;;;;;;5063418;28;20156;-60
2021/06/13 02:34:50;;;;;;;1.60;1.15;;;28.30;46.90;;;;;;5067174;28;20040;-59
2021/06/13 02:37:17;;;;;;;2.28;1.40;;;28.30;47.40;;;;;;5069748;28;20086;-60
2021/06/13 02:39:44;;;;;;;1.42;1.10;;;28.30;46.90;;;;;;5067796;28;20115;-59
2021/06/13 02:42:10;;;;;;;1.60;1.30;;;28.30;47.00;;;;;;5068888;28;20020;-58
2021/06/13 02:44:36;;;;;;;1.70;1.30;;;28.30;47.00;;;;;;5066606;28;20044;-60
2021/06/13 02:47:02;;;;;;;1.58;1.30;;;28.20;46.90;;;;;;5065774;28;20025;-60
2021/06/13 02:49:27;;;;;;;1.48;1.30;;;28.20;47.00;;;;;;5055638;28;20119;-59
2021/06/13 02:52:23;;;;;;;1.60;1.33;;;28.20;47.00;;;;;;5068353;28;20032;-60
2021/06/13 02:54:51;;;;;;;1.60;1.15;;;28.20;46.90;;;;;;5049806;28;20165;-59
2021/06/13 02:57:43;;;;;;;1.83;1.30;;;28.20;47.00;;;;;;5066149;28;20447;-60
2021/06/13 03:00:10;;;;;;;1.75;1.30;;;28.20;47.00;;;;;;5048038;28;20097;-59
2021/06/13 03:02:41;;;;;;;1.50;1.20;;;28.20;47.00;;;;;;5052360;28;20028;-60
2021/06/13 03:05:08;;;;;;;1.77;1.20;;;28.10;46.90;;;;;;5054076;28;20020;-59
2021/06/13 03:07:35;;;;;;;1.55;1.10;;;28.10;46.90;;;;;;5058413;28;20036;-60
2021/06/13 03:10:05;;;;;;;1.70;1.30;;;28.10;47.00;;;;;;5059224;28;20055;-60
2021/06/13 03:12:31;;;;;;;1.92;1.30;;;28.10;47.00;;;;;;5063971;28;20029;-60
2021/06/13 03:14:58;;;;;;;1.77;1.30;;;28.10;47.00;;;;;;5063767;28;20456;-60
2021/06/13 03:17:25;;;;;;;1.55;1.20;;;28.00;47.00;;;;;;5062635;28;20040;-59
2021/06/13 03:19:51;;;;;;;1.80;1.30;;;28.00;47.00;;;;;;5068210;28;20197;-60
2021/06/13 03:22:17;;;;;;;1.40;1.20;;;28.00;47.00;;;;;;5079572;28;20063;-59
2021/06/13 03:24:47;;;;;;;1.80;1.23;;;28.00;47.00;;;;;;5048944;28;20632;-60
2021/06/13 03:27:13;;;;;;;1.70;1.23;;;28.00;47.10;;;;;;5054515;28;20097;-59
2021/06/13 03:29:41;;;;;;;1.80;1.40;;;28.00;47.10;;;;;;5053047;28;20432;-59
2021/06/13 03:32:09;;;;;;;2.00;1.48;;;27.90;47.00;;;;;;5046493;28;20099;-59
2021/06/13 03:34:40;;;;;;;1.80;1.25;;;27.90;47.00;;;;;;5047814;28;20090;-58
2021/06/13 03:37:09;;;;;;;1.52;1.20;;;27.90;47.00;;;;;;5048549;28;20037;-59
2021/06/13 03:39:35;;;;;;;1.52;1.20;;;27.90;47.00;;;;;;5047103;28;20025;-60
2021/06/13 03:42:02;;;;;;;2.00;1.30;;;27.90;47.00;;;;;;5066650;28;20203;-60
2021/06/13 03:44:28;;;;;;;1.50;1.20;;;27.90;47.10;;;;;;5060359;28;20024;-60
2021/06/13 03:46:55;;;;;;;1.88;1.40;;;27.90;47.10;;;;;;5066456;28;20028;-60
2021/06/13 03:49:22;;;;;;;1.88;1.30;;;27.80;47.00;;;;;;5067833;28;20052;-60
2021/06/13 03:51:49;;;;;;;1.77;1.40;;;27.80;47.00;;;;;;5053257;28;20040;-58
2021/06/13 03:54:15;;;;;;;1.75;1.40;;;27.80;47.10;;;;;;5048349;28;20041;-59
2021/06/13 03:56:45;;;;;;;1.60;1.40;;;27.80;47.10;;;;;;5066140;28;20048;-61
2021/06/13 03:59:11;;;;;;;2.10;1.30;;;27.80;47.50;;;;;;5062771;28;20258;-60
2021/06/13 04:01:40;;;;;;;1.60;1.30;;;27.80;47.10;;;;;;5065403;28;20121;-59
2021/06/13 04:04:06;;;;;;;2.28;1.40;;;27.80;47.00;;;;;;5066988;28;20463;-61
2021/06/13 04:06:32;;;;;;;1.45;1.30;;;27.80;47.00;;;;;;5053967;28;20043;-59
2021/06/13 04:08:59;;;;;;;2.58;1.27;;;27.70;47.00;;;;;;5049228;28;20468;-60
2021/06/13 04:11:26;;;;;;;2.03;1.30;;;27.70;47.00;;;;;;5050530;28;20022;-59
2021/06/13 04:13:54;;;;;;;1.85;1.30;;;27.70;47.00;;;;;;5047176;28;20099;-61
2021/06/13 04:16:22;;;;;;;1.42;1.20;;;27.70;47.00;;;;;;5049709;28;20100;-60
2021/06/13 04:18:48;;;;;;;1.95;1.50;;;27.70;46.90;;;;;;5047864;28;20029;-60
2021/06/13 04:21:15;;;;;;;2.15;1.42;;;27.70;46.90;;;;;;5049969;28;20020;-60
2021/06/13 04:23:43;;;;;;;2.08;1.50;;;27.70;46.90;;;;;;5060967;28;20031;-59
2021/06/13 04:26:14;;;;;;;1.70;1.40;;;27.70;47.40;;;;;;5047302;28;20127;-60
2021/06/13 04:28:41;;;;;;;1.65;1.35;;;27.70;46.90;;;;;;5055255;28;20033;-59
2021/06/13 04:31:13;;;;;;;2.00;1.80;;;27.70;46.90;;;;;;5059882;28;20029;-59
2021/06/13 04:33:45;;;;;;;2.20;1.40;;;27.70;46.90;;;;;;5051716;28;20100;-59
2021/06/13 04:36:12;;;;;;;2.28;1.60;;;27.60;46.90;;;;;;5047370;28;20592;-60
2021/06/13 04:38:39;;;;;;;1.92;1.42;;;27.60;46.90;;;;;;5066589;28;20090;-59
2021/06/13 04:41:05;;;;;;;1.55;1.20;;;27.60;46.90;;;;;;5066106;28;20040;-59
2021/06/13 04:43:33;;;;;;;2.03;1.52;;;27.60;46.90;;;;;;5059444;28;20043;-60
2021/06/13 04:46:02;;;;;;;1.90;1.40;;;27.60;46.90;;;;;;5050533;28;20024;-59
2021/06/13 04:48:28;;;;;;;;;;;27.60;46.90;;;;;;5061331;28;20545;-60
2021/06/13 04:50:54;;;;;;;1.92;1.40;;;27.60;47.40;;;;;;5067369;28;19943;-60
2021/06/13 04:53:49;;;;;;;2.40;1.75;;;27.60;47.00;;;;;;5059399;28;20025;-60
2021/06/13 04:56:39;;;;;;;1.92;1.60;;;27.60;47.00;;;;;;5062651;28;20021;-60
2021/06/13 04:59:05;;;;;;;3.55;2.28;;;27.50;47.00;;;;;;5064320;28;20029;-59
2021/06/13 05:01:32;;;;;;;3.80;2.50;;;27.40;42.90;;;;;;5067714;28;20029;-59
2021/06/13 05:03:58;;;;;;;3.47;2.30;;;27.30;42.00;;;;;;5069514;28;20028;-61
2021/06/13 05:06:24;;;;;;;4.00;2.30;;;27.20;42.00;;;;;;5069469;28;20052;-59
2021/06/13 05:08:50;;;;;;;3.50;2.65;;;27.00;41.00;;;;;;5058186;28;20060;-60
2021/06/13 05:11:17;;;;;;;4.15;2.60;;;26.90;40.50;;;;;;5059055;28;20063;-59
2021/06/13 05:13:43;;;;;;;4.25;2.40;;;26.80;41.00;;;;;;5070054;28;20027;-59
2021/06/13 05:16:08;;;;;;;4.32;2.70;;;26.80;40.80;;;;;;5069344;28;20028;-60
2021/06/13 05:18:34;;;;;;;3.67;2.55;;;26.70;40.70;;;;;;5064528;28;20028;-59
2021/06/13 05:21:00;;;;;;;4.03;2.40;;;26.70;40.80;;;;;;5062862;28;20059;-59
2021/06/13 05:23:26;;;;;;;4.40;2.55;;;26.60;40.50;;;;;;5054894;28;20033;-59
2021/06/13 05:25:54;;;;;;;3.38;2.20;;;26.60;40.20;;;;;;5063505;28;20352;-59
2021/06/13 05:28:22;;;;;;;2.97;2.17;;;26.50;40.90;;;;;;5059661;28;20104;-61
2021/06/13 05:30:47;;;;;;;3.78;2.50;;;26.50;40.40;;;;;;5067091;28;20860;-60
2021/06/13 05:33:14;;;;;;;3.20;1.95;;;26.40;40.40;;;;;;5069583;28;20028;-58
2021/06/13 05:35:40;;;;;;;4.32;2.25;;;26.30;40.50;;;;;;5048563;28;20047;-59
2021/06/13 05:38:07;;;;;;;3.85;2.15;;;26.30;40.90;;;;;;5057975;28;20029;-60
2021/06/13 05:40:33;;;;;;;3.45;1.98;;;26.30;40.30;;;;;;5052153;28;20050;-61
2021/06/13 05:42:59;;;;;;;2.92;1.90;;;26.20;39.70;;;;;;5054305;28;20451;-60
2021/06/13 05:45:27;;;;;;;3.85;1.85;;;26.10;39.60;;;;;;5068599;28;20021;-60
2021/06/13 05:47:53;;;;;;;3.83;2.30;;;26.10;39.30;;;;;;5060728;28;20436;-61
2021/06/13 05:50:19;;;;;;;3.45;2.03;;;26.00;38.90;;;;;;5066588;28;20047;-61
2021/06/13 05:52:45;;;;;;;5.13;1.90;;;25.90;38.60;;;;;;5054081;28;20820;-60
2021/06/13 05:55:12;;;;;;;3.25;2.22;;;25.80;38.90;;;;;;5063143;28;20048;-61
2021/06/13 05:57:38;;;;;;;3.88;1.80;;;25.70;39.30;;;;;;5065615;28;20028;-61
2021/06/13 06:00:13;;;;;;;3.30;1.70;;;25.70;39.50;;;;;;5048749;28;20083;-59
2021/06/13 06:02:39;;;;;;;3.28;1.75;;;25.70;40.00;;;;;;5053972;28;20032;-61
2021/06/13 06:05:07;;;;;;;4.05;2.05;;;25.70;39.60;;;;;;5059126;28;20036;-61
2021/06/13 06:07:33;;;;;;;3.20;1.88;;;25.60;39.00;;;;;;5053063;28;20028;-61
2021/06/13 06:09:59;;;;;;;4.07;1.80;;;25.60;38.90;;;;;;5060104;28;20553;-61
2021/06/13 06:12:24;;;;;;;3.95;1.60;;;25.50;38.40;;;;;;5054353;28;20108;-60
2021/06/13 06:14:50;;;;;;;3.15;1.40;;;25.30;38.00;;;;;;5063585;28;20028;-60
2021/06/13 06:17:17;;;;;;;3.88;1.73;;;25.30;38.30;;;;;;5054810;28;20037;-60
2021/06/13 06:19:42;;;;;;;3.63;1.40;;;25.20;38.70;;;;;;5048554;28;20025;-59
2021/06/13 06:22:08;;;;;;;3.90;1.58;;;25.10;38.60;;;;;;5051075;28;20055;-60
2021/06/13 06:24:34;;;;;;;2.60;1.50;;;25.10;38.40;;;;;;5061120;28;20032;-60
2021/06/13 06:27:00;;;;;;;2.28;1.40;;;25.00;38.50;;;;;;5059912;28;20051;-60
2021/06/13 06:29:26;;;;;;;3.25;1.33;;;25.00;39.10;;;;;;5050122;28;20063;-57
2021/06/13 06:31:52;;;;;;;4.88;1.60;;;25.00;39.30;;;;;;5057360;28;20036;-61
2021/06/13 06:34:18;;;;;;;3.13;1.50;;;24.90;39.00;;;;;;5061708;28;20382;-59
2021/06/13 06:36:45;;;;;;;3.03;1.48;;;24.80;38.80;;;;;;5048358;28;20025;-60
2021/06/13 06:39:11;;;;;;;3.80;1.60;;;24.80;39.80;;;;;;5053724;28;20112;-59
2021/06/13 06:41:38;;;;;;;4.22;1.73;;;24.80;39.30;;;;;;5051496;28;20021;-62
2021/06/13 06:44:05;;;;;;;3.22;1.70;;;24.70;39.40;;;;;;5046536;28;20033;-59
2021/06/13 06:46:30;;;;;;;2.88;1.45;;;24.70;39.40;;;;;;5045248;28;20471;-60
2021/06/13 06:48:57;;;;;;;3.38;1.65;;;24.70;39.60;;;;;;5046472;28;126063;-61
2021/06/13 06:51:23;;;;;;;3.45;1.60;;;24.70;39.70;;;;;;5056215;28;20025;-60
2021/06/13 06:53:49;;;;;;;3.83;1.80;;;24.60;39.40;;;;;;5057169;28;20086;-59
2021/06/13 06:56:15;;;;;;;2.75;1.50;;;24.60;39.50;;;;;;5060704;28;20107;-61
2021/06/13 06:58:41;;;;;;;4.15;1.40;;;24.50;39.70;;;;;;5052691;28;20116;-62
2021/06/13 07:01:06;;;;;;;4.65;1.52;;;24.50;40.30;;;;;;5059222;28;20862;-60
2021/06/13 07:03:32;;;;;;;3.00;1.50;;;24.50;40.70;;;;;;5058142;28;20162;-60
2021/06/13 07:05:58;;;;;;;1.98;1.30;;;24.60;40.70;;;;;;5060145;28;20465;-60
2021/06/13 07:08:23;;;;;;;2.85;1.33;;;24.60;40.90;;;;;;5055897;28;20052;-61
2021/06/13 07:10:49;;;;;;;3.53;1.70;;;24.60;40.70;;;;;;5045582;28;20546;-60
2021/06/13 07:13:15;;;;;;;2.70;1.38;;;24.60;41.00;;;;;;5056620;28;20478;-61
2021/06/13 07:15:40;;;;;;;3.40;1.40;;;24.60;41.00;;;;;;5057568;28;20056;-60
2021/06/13 07:18:06;;;;;;;3.13;1.30;;;24.60;41.30;;;;;;5046577;28;20036;-60
2021/06/13 07:20:32;;;;;;;2.78;1.40;;;24.60;41.30;;;;;;5047969;28;20033;-62
2021/06/13 07:22:57;;;;;;;4.22;1.75;;;24.60;41.10;;;;;;5050005;28;20102;-61
2021/06/13 07:25:23;;;;;;;3.50;1.60;;;24.60;41.30;;;;;;5050984;28;20027;-60
2021/06/13 07:27:49;;;;;;;2.72;1.42;;;24.60;41.20;;;;;;5048815;28;20029;-60
2021/06/13 07:30:16;;;;;;;3.13;1.40;;;24.60;41.60;;;;;;5055124;28;20048;-62
2021/06/13 07:32:43;;;;;;;3.30;1.40;;;24.60;41.00;;;;;;5045875;28;20506;-60
2021/06/13 07:35:11;;;;;;;3.17;1.23;;;24.60;41.10;;;;;;5046528;28;20498;-61
2021/06/13 07:37:37;;;;;;;2.72;1.65;;;24.60;41.20;;;;;;5045693;28;20048;-60
2021/06/13 07:40:05;;;;;;;3.17;1.33;;;24.70;41.40;;;;;;5059362;28;20040;-61
2021/06/13 07:42:31;;;;;;;1.77;1.13;;;24.70;41.60;;;;;;5069929;28;20043;-60
2021/06/13 07:44:56;;;;;;;2.88;1.30;;;24.70;41.60;;;;;;5058498;28;20074;-60
2021/06/13 07:47:22;;;;;;;2.92;1.30;;;24.70;41.70;;;;;;5056397;28;20021;-61
2021/06/13 07:49:47;;;;;;;1.85;1.20;;;24.80;41.80;;;;;;5055276;28;20032;-60
2021/06/13 07:52:13;;;;;;;2.33;1.20;;;24.80;42.00;;;;;;5051295;28;20296;-60
2021/06/13 07:54:39;;;;;;;2.20;1.20;;;24.80;42.00;;;;;;5058557;28;20100;-60
2021/06/13 07:57:05;;;;;;;2.85;1.20;;;24.80;42.10;;;;;;5059384;28;20059;-60
2021/06/13 07:59:31;;;;;;;2.50;1.33;;;24.80;42.10;;;;;;5065105;28;20463;-61
2021/06/13 08:01:57;;;;;;;2.78;1.30;;;24.80;42.20;;;;;;5057839;28;20033;-60
2021/06/13 08:04:22;;;;;;;2.03;1.20;;;24.80;42.30;;;;;;5056810;28;20025;-61
2021/06/13 08:06:48;;;;;;;2.22;1.17;;;24.80;42.40;;;;;;5051070;28;20144;-60
2021/06/13 08:09:14;;;;;;;1.67;1.10;;;24.90;42.40;;;;;;5052591;28;20041;-60
2021/06/13 08:11:40;;;;;;;2.45;1.10;;;24.90;42.50;;;;;;5054794;28;20147;-60
2021/06/13 08:14:06;;;;;;;2.30;1.20;;;24.90;42.60;;;;;;5058316;28;20665;-60
2021/06/13 08:16:31;;;;;;;1.90;1.13;;;24.90;42.60;;;;;;5060556;28;20040;-60
2021/06/13 08:18:57;;;;;;;3.15;1.20;;;24.90;42.70;;;;;;5067428;28;20471;-61
2021/06/13 08:21:23;;;;;;;1.73;1.10;;;24.90;42.70;;;;;;5049784;28;20573;-61
2021/06/13 08:23:48;;;;;;;2.13;1.20;;;25.00;42.80;;;;;;5053583;28;20028;-62
2021/06/13 08:26:15;;;;;;;2.47;1.23;;;24.90;42.80;;;;;;5051296;28;20447;-61
2021/06/13 08:28:41;;;;;;;2.13;1.20;;;25.00;42.90;;;;;;5058898;28;20100;-61
2021/06/13 08:31:06;;;;;;;2.03;1.13;;;25.00;42.90;;;;;;5056886;28;20089;-60
2021/06/13 08:33:32;;;;;;;2.88;1.30;;;25.00;42.90;;;;;;5047146;28;20025;-61
2021/06/13 08:35:58;;;;;;;3.72;1.10;;;25.00;42.90;;;;;;5062887;28;20033;-60
2021/06/13 08:38:24;;;;;;;1.90;1.13;;;25.00;43.00;;;;;;5063887;28;20404;-60
2021/06/13 08:40:51;;;;;;;1.92;1.20;;;25.00;43.00;;;;;;5062273;28;20491;-60
2021/06/13 08:43:18;;;;;;;2.08;1.20;;;25.00;43.00;;;;;;5063428;28;20017;-62
2021/06/13 08:45:44;;;;;;;2.33;1.30;;;25.00;43.10;;;;;;5063427;28;20024;-60
2021/06/13 08:48:13;;;;;;;3.00;1.15;;;25.10;43.10;;;;;;5047395;28;20025;-61
2021/06/13 08:50:38;;;;;;;1.67;1.20;;;25.10;43.20;;;;;;5047122;28;20121;-61
2021/06/13 08:53:06;;;;;;;2.28;1.10;;;25.10;43.20;;;;;;5045982;28;20123;-60
2021/06/13 08:55:32;;;;;;;2.03;1.23;;;25.10;43.70;;;;;;5063357;28;20100;-62
2021/06/13 08:58:00;;;;;;;1.92;1.20;;;25.10;43.20;;;;;;5058058;28;20122;-61
2021/06/13 09:00:29;;;;;;;3.30;1.13;;;25.10;43.30;;;;;;5048864;28;20036;-60
2021/06/13 09:02:55;;;;;;;;;;;25.10;43.30;;;;;;5046889;28;20082;-59
2021/06/13 09:05:23;;;;;;;2.00;1.20;;;25.10;43.30;;;;;;5045106;28;19908;-61
2021/06/13 09:07:57;;;;;;;1.58;1.05;;;25.10;43.30;;;;;;5060095;28;20039;-61
2021/06/13 09:10:26;;;;;;;1.77;1.10;;;25.10;43.30;;;;;;5051770;28;20021;-60
2021/06/13 09:13:15;;;;;;;2.88;1.15;;;25.10;43.90;;;;;;5052097;28;20029;-61
2021/06/13 09:15:47;;;;;;;1.98;1.10;;;25.10;43.40;;;;;;5043055;28;20037;-60
2021/06/13 09:18:39;;;;;;;1.83;1.00;;;25.20;43.60;;;;;;5050707;28;20124;-61
2021/06/13 09:21:32;;;;;;;2.65;1.30;;;25.20;43.60;;;;;;5047250;28;20456;-60
2021/06/13 09:23:59;;;;;;;2.33;1.13;;;25.20;43.60;;;;;;5052435;28;20028;-61
2021/06/13 09:26:27;;;;;;;1.80;1.10;;;25.30;43.70;;;;;;5064797;28;20131;-61
2021/06/13 09:28:54;;;;;;;1.60;1.10;;;25.20;43.70;;;;;;5047070;28;20036;-61
2021/06/13 09:31:29;;;;;;;2.20;1.13;;;25.20;44.20;;;;;;5053649;28;20305;-61
2021/06/13 09:33:58;;;;;;;2.38;1.02;;;25.20;43.70;;;;;;5053637;28;20091;-60
2021/06/13 09:36:32;;;;;;;1.42;1.10;;;25.20;43.70;;;;;;5048889;28;20025;-60
2021/06/13 09:39:06;;;;;;;2.25;1.20;;;25.30;43.80;;;;;;5051176;28;20107;-61
2021/06/13 09:41:34;;;;;;;1.80;1.20;;;25.30;43.80;;;;;;5047831;28;20029;-60
2021/06/13 09:44:05;;;;;;;2.05;1.23;;;25.30;43.80;;;;;;5065485;28;20135;-60
2021/06/13 09:46:33;;;;;;;1.67;1.10;;;25.30;43.80;;;;;;5062639;28;20627;-60
2021/06/13 09:49:04;;;;;;;1.95;1.20;;;25.30;43.80;;;;;;5070671;28;20043;-61
2021/06/13 09:51:33;;;;;;;2.05;1.10;;;25.30;43.80;;;;;;5063283;28;20421;-60
2021/06/13 09:54:04;;;;;;;1.75;1.10;;;25.30;43.80;;;;;;5049896;28;20075;-60
2021/06/13 09:56:39;;;;;;;3.38;1.30;;;25.30;43.90;;;;;;5062061;28;20016;-60
2021/06/13 09:59:34;;;;;;;1.88;1.10;;;25.30;43.80;;;;;;5069464;28;20915;-60
2021/06/13 10:02:06;;;;;;;1.95;1.23;;;25.30;43.90;;;;;;5041546;28;20033;-60
2021/06/13 10:04:37;;;;;;;1.73;1.17;;;25.30;43.90;;;;;;5051947;28;20021;-60
2021/06/13 10:07:14;;;;;;;3.15;1.25;;;25.30;43.90;;;;;;5051964;28;20036;-60
2021/06/13 10:09:41;;;;;;;2.75;1.20;;;25.30;43.90;;;;;;5053523;28;20071;-60
2021/06/13 10:12:09;;;;;;;3.08;1.30;;;25.40;44.00;;;;;;5055348;28;20785;-59
2021/06/13 10:14:35;;;;;;;2.25;1.13;;;25.30;43.90;;;;;;5048800;28;20486;-60
2021/06/13 10:17:01;;;;;;;2.20;1.10;;;25.40;44.00;;;;;;5048933;28;20036;-60
2021/06/13 10:19:36;;;;;;;2.30;1.33;;;25.40;44.00;;;;;;5050103;28;20086;-59
2021/06/13 10:22:01;;;;;;;2.22;1.23;;;25.40;44.50;;;;;;5053073;28;20021;-61
2021/06/13 10:24:39;;;;;;;1.77;1.10;;;25.40;44.00;;;;;;5048355;28;20539;-60
2021/06/13 10:27:07;;;;;;;1.75;1.20;;;25.40;44.00;;;;;;5048577;28;20053;-60
2021/06/13 10:29:35;;;;;;;1.95;1.20;;;25.40;44.00;;;;;;5065273;28;20436;-61
2021/06/13 10:32:03;;;;;;;2.85;1.30;;;25.40;44.10;;;;;;5067684;28;20029;-61
2021/06/13 10:34:29;;;;;;;1.98;1.30;;;25.40;44.10;;;;;;5056823;28;20032;-60
2021/06/13 10:37:00;;;;;;;2.13;1.30;;;25.40;44.10;;;;;;5083822;28;20028;-60
2021/06/13 10:39:28;;;;;;;1.80;1.20;;;25.40;44.10;;;;;;5067539;28;20029;-59
2021/06/13 10:41:54;;;;;;;2.03;1.38;;;25.40;44.10;;;;;;5065964;28;20043;-61
2021/06/13 10:44:22;;;;;;;2.40;1.30;;;25.40;44.10;;;;;;5055250;28;20025;-61
2021/06/13 10:46:51;;;;;;;2.20;1.20;;;25.40;44.10;;;;;;5049124;28;20021;-59
2021/06/13 10:49:35;;;;;;;2.40;1.30;;;25.40;44.10;;;;;;5049780;28;20603;-60
2021/06/13 10:52:03;;;;;;;2.75;1.30;;;25.40;44.20;;;;;;5048401;28;20029;-60
2021/06/13 10:54:35;;;;;;;2.42;1.30;;;25.40;44.10;;;;;;5059238;28;20703;-60
2021/06/13 10:57:03;;;;;;;2.95;1.50;;;25.40;44.10;;;;;;5063956;28;20410;-59
2021/06/13 10:59:37;;;;;;;2.22;1.40;;;25.40;44.10;;;;;;5067784;28;20036;-60
2021/06/13 11:02:09;;;;;;;2.30;1.35;;;25.40;44.10;;;;;;5047393;28;20037;-60
2021/06/13 11:04:41;;;;;;;1.92;1.10;;;25.50;44.20;;;;;;5049074;28;20570;-60
2021/06/13 11:07:06;;;;;;;2.90;1.30;;;25.50;44.20;;;;;;5066869;28;20028;-60
2021/06/13 11:09:32;;;;;;;2.42;1.38;;;25.50;44.20;;;;;;5068259;28;20680;-60
2021/06/13 11:11:58;;;;;;;2.30;1.33;;;25.40;44.20;;;;;;5067487;28;20091;-61
2021/06/13 11:14:29;;;;;;;2.55;1.30;;;25.50;44.20;;;;;;5066950;28;20036;-60
2021/06/13 11:16:58;;;;;;;2.08;1.38;;;25.50;44.20;;;;;;5067560;28;20037;-60
2021/06/13 11:19:29;;;;;;;1.90;1.20;;;25.50;44.20;;;;;;5062112;28;20033;-60
2021/06/13 11:22:16;;;;;;;2.25;1.45;;;25.50;44.20;;;;;;5047562;28;20037;-60
2021/06/13 11:24:46;;;;;;;2.78;1.45;;;25.50;44.20;;;;;;5035825;28;20055;-61
2021/06/13 11:27:12;;;;;;;2.30;1.25;;;25.50;44.20;;;;;;5052557;28;20033;-61
2021/06/13 11:29:49;;;;;;;2.03;1.30;;;25.50;44.20;;;;;;5053732;28;20132;-61
2021/06/13 11:32:15;;;;;;;2.45;1.50;;;25.50;44.20;;;;;;5046720;28;20055;-60
2021/06/13 11:34:47;;;;;;;2.30;1.30;;;25.50;44.30;;;;;;5059255;28;20029;-60
2021/06/13 11:37:23;;;;;;;1.85;1.15;;;25.50;44.40;;;;;;5062119;28;20378;-61
2021/06/13 11:39:54;;;;;;;2.70;1.27;;;25.60;44.50;;;;;;5076432;28;20067;-60
2021/06/13 11:42:21;;;;;;;2.35;1.30;;;25.60;44.40;;;;;;5064771;28;20525;-60
2021/06/13 11:44:48;;;;;;;2.47;1.42;;;25.60;44.40;;;;;;5065723;28;20094;-60
2021/06/13 11:47:28;;;;;;;2.00;1.40;;;25.70;44.40;;;;;;5049863;28;20021;-61
2021/06/13 11:49:55;;;;;;;2.28;1.33;;;25.70;44.40;;;;;;5047658;28;20044;-61
2021/06/13 11:52:22;;;;;;;2.60;1.50;;;25.70;44.40;;;;;;5065593;28;20129;-62
2021/06/13 11:54:58;;;;;;;2.70;1.25;;;25.70;44.40;;;;;;5067613;28;20426;-60
2021/06/13 11:57:24;;;;;;;2.03;1.27;;;25.70;44.40;;;;;;5050132;28;20596;-62
2021/06/13 11:59:50;;;;;;;2.13;1.20;;;25.80;44.40;;;;;;5058813;28;20028;-61
2021/06/13 12:02:19;;;;;;;2.47;1.25;;;25.80;44.40;;;;;;5065764;28;20035;-60
2021/06/13 12:04:48;;;;;;;;;;;25.80;44.40;;;;;;5057877;28;20043;-59
2021/06/13 12:07:17;;;;;;;2.10;1.27;;;25.80;44.30;;;;;;5060336;28;19912;-59
2021/06/13 12:09:48;;;;;;;2.33;1.20;;;25.90;44.40;;;;;;5052221;28;20040;-61
2021/06/13 12:12:14;;;;;;;2.40;1.10;;;25.90;44.30;;;;;;5046536;28;20049;-60
2021/06/13 12:14:44;;;;;;;2.28;1.20;;;25.90;44.30;;;;;;5047265;28;20436;-61
2021/06/13 12:17:13;;;;;;;2.15;1.10;;;26.00;44.30;;;;;;5055745;28;20055;-59
2021/06/13 12:19:47;;;;;;;2.25;1.30;;;26.00;44.30;;;;;;5066622;28;20375;-60
2021/06/13 12:27:43;;;;;;;2.38;1.40;;;26.00;44.30;;;;;;5061382;28;20078;-60
2021/06/13 12:30:15;;;;;;;1.95;1.27;;;26.00;44.30;;;;;;5066161;28;20099;-60
2021/06/13 12:32:42;;;;;;;1.90;1.20;;;26.00;44.20;;;;;;5055106;28;20037;-59
2021/06/13 12:35:10;;;;;;;1.58;1.08;;;26.00;44.30;;;;;;5057014;28;20058;-60
2021/06/13 12:37:36;;;;;;;1.83;1.35;;;26.00;44.20;;;;;;5060680;28;20025;-60
2021/06/13 12:40:12;;;;;;;1.42;1.10;;;26.00;44.20;;;;;;5057208;28;20491;-59
2021/06/13 12:42:39;;;;;;;1.80;1.25;;;26.00;44.30;;;;;;5050522;28;20032;-59
2021/06/13 12:45:11;;;;;;;1.80;1.20;;;26.00;44.30;;;;;;5058360;28;20123;-59
2021/06/13 12:47:43;;;;;;;1.98;1.40;;;26.00;44.30;;;;;;5057066;28;20418;-59
2021/06/13 12:50:18;;;;;;;2.00;1.20;;;26.10;44.30;;;;;;5057995;28;20374;-60
2021/06/13 12:52:49;;;;;;;2.17;1.23;;;26.10;44.40;;;;;;5059689;28;20143;-61
2021/06/13 12:55:16;;;;;;;1.35;1.00;;;26.10;44.40;;;;;;5048014;28;20055;-60
2021/06/13 12:57:46;;;;;;;1.45;1.05;;;26.10;44.30;;;;;;5060969;28;20029;-61
2021/06/13 13:00:13;;;;;;;1.90;1.10;;;26.10;44.40;;;;;;5054783;28;20021;-59